createdAt,value
2023-02-05T00:00:48.002Z,8.67
2023-02-05T00:03:15.382Z,7.77
2023-02-05T00:05:42.978Z,8.23
2023-02-05T00:08:10.305Z,9.60
2023-02-05T00:10:37.661Z,8.90
2023-02-05T00:13:04.989Z,9.60
2023-02-05T00:15:32.907Z,9.30
2023-02-05T00:18:00.370Z,9.10
2023-02-05T00:20:28.662Z,9.10
2023-02-05T00:22:56.898Z,8.90
2023-02-05T00:25:24.410Z,8.27
2023-02-05T00:27:51.752Z,8.87
2023-02-05T00:30:19.187Z,10.07
2023-02-05T00:32:46.700Z,8.50
2023-02-05T00:35:14.128Z,8.67
2023-02-05T00:37:41.487Z,8.67
2023-02-05T00:40:09.053Z,9.13
2023-02-05T00:42:36.387Z,9.20
2023-02-05T00:45:03.791Z,9.00
2023-02-05T00:47:31.097Z,8.30
2023-02-05T00:49:58.508Z,7.67
2023-02-05T00:52:26.003Z,8.27
2023-02-05T00:54:53.878Z,7.67
2023-02-05T00:57:24.701Z,7.47
2023-02-05T00:59:53.120Z,7.53
2023-02-05T01:02:23.911Z,7.00
2023-02-05T01:04:55.254Z,7.87
2023-02-05T01:07:22.594Z,7.97
2023-02-05T01:09:49.963Z,7.93
2023-02-05T01:12:17.546Z,8.07
2023-02-05T01:14:44.890Z,8.33
2023-02-05T01:17:12.218Z,8.10
2023-02-05T01:19:39.541Z,7.67
2023-02-05T01:22:06.973Z,7.90
2023-02-05T01:25:06.473Z,8.10
2023-02-05T01:27:34.750Z,7.60
2023-02-05T01:30:02.428Z,7.07
2023-02-05T01:32:30.581Z,8.23
2023-02-05T01:34:57.976Z,7.87
2023-02-05T01:37:25.678Z,7.90
2023-02-05T01:39:53.021Z,7.37
2023-02-05T01:42:22.849Z,7.50
2023-02-05T01:45:09.874Z,7.33
2023-02-05T01:47:37.285Z,7.73
2023-02-05T01:50:04.772Z,7.37
2023-02-05T01:52:32.154Z,7.23
2023-02-05T01:55:01.623Z,7.00
2023-02-05T01:57:29.099Z,6.87
2023-02-05T01:59:56.485Z,6.90
2023-02-05T02:02:23.860Z,7.20
2023-02-05T02:04:53.323Z,6.83
2023-02-05T02:07:22.181Z,7.60
2023-02-05T02:09:50.164Z,8.20
2023-02-05T02:12:20.707Z,7.67
2023-02-05T02:14:50.068Z,7.90
2023-02-05T02:17:17.914Z,7.17
2023-02-05T02:19:51.187Z,8.00
2023-02-05T02:22:30.760Z,8.03
2023-02-05T02:24:58.060Z,6.80
2023-02-05T02:27:31.415Z,7.73
2023-02-05T02:30:00.685Z,7.23
2023-02-05T02:32:54.652Z,7.53
2023-02-05T02:35:26.720Z,7.10
2023-02-05T02:38:02.102Z,6.33
2023-02-05T02:40:36.739Z,6.50
2023-02-05T02:43:08.083Z,6.93
2023-02-05T02:45:36.375Z,7.20
2023-02-05T02:48:05.072Z,6.53
2023-02-05T02:50:34.894Z,6.23
2023-02-05T02:53:17.415Z,5.47
2023-02-05T02:55:45.304Z,5.93
2023-02-05T02:58:21.889Z,6.27
2023-02-05T03:00:50.032Z,6.03
2023-02-05T03:03:20.303Z,5.90
2023-02-05T03:05:48.866Z,5.60
2023-02-05T03:08:23.305Z,5.90
2023-02-05T03:11:00.048Z,5.83
2023-02-05T03:13:29.139Z,5.77
2023-02-05T03:16:01.067Z,5.50
2023-02-05T03:18:28.438Z,6.60
2023-02-05T03:21:06.690Z,6.23
2023-02-05T03:23:34.042Z,5.97
2023-02-05T03:26:01.428Z,5.60
2023-02-05T03:28:41.376Z,6.07
2023-02-05T03:31:18.472Z,6.53
2023-02-05T03:34:09.334Z,5.33
2023-02-05T03:36:49.117Z,6.30
2023-02-05T03:39:17.498Z,6.33
2023-02-05T03:41:56.873Z,6.27
2023-02-05T03:44:42.965Z,6.00
2023-02-05T03:47:17.953Z,6.57
2023-02-05T03:49:54.637Z,6.37
2023-02-05T03:52:33.701Z,5.83
2023-02-05T03:55:01.717Z,5.50
2023-02-05T03:57:39.340Z,6.37
2023-02-05T04:00:07.883Z,6.23
2023-02-05T04:02:41.545Z,5.53
2023-02-05T04:05:10.732Z,6.03
2023-02-05T04:07:39.913Z,6.50
2023-02-05T04:10:09.289Z,6.53
2023-02-05T04:12:37.993Z,5.87
2023-02-05T04:15:09.096Z,6.47
2023-02-05T04:17:38.933Z,6.10
2023-02-05T04:20:07.280Z,6.50
2023-02-05T04:22:34.798Z,6.97
2023-02-05T04:25:02.446Z,6.00
2023-02-05T04:27:30.062Z,7.57
2023-02-05T04:30:00.586Z,6.13
2023-02-05T04:32:28.931Z,6.37
2023-02-05T04:34:56.331Z,6.33
2023-02-05T04:37:25.251Z,6.30
2023-02-05T04:39:52.778Z,5.57
2023-02-05T04:42:20.093Z,6.53
2023-02-05T04:44:47.466Z,7.00
2023-02-05T04:47:14.818Z,6.20
2023-02-05T04:49:42.169Z,6.70
2023-02-05T04:52:09.557Z,7.07
2023-02-05T04:54:39.712Z,6.87
2023-02-05T04:57:07.096Z,6.20
2023-02-05T04:59:34.408Z,6.10
2023-02-05T05:02:01.795Z,6.87
2023-02-05T05:04:29.102Z,6.20
2023-02-05T05:06:57.311Z,6.17
2023-02-05T05:09:25.356Z,6.13
2023-02-05T05:11:53.307Z,5.57
2023-02-05T05:14:20.857Z,6.20
2023-02-05T05:16:49.224Z,5.93
2023-02-05T05:19:16.739Z,6.60
2023-02-05T05:21:44.193Z,6.30
2023-02-05T05:24:11.568Z,6.53
2023-02-05T05:26:43.698Z,6.23
2023-02-05T05:29:11.727Z,6.53
2023-02-05T05:31:39.495Z,6.43
2023-02-05T05:34:06.860Z,6.60
2023-02-05T05:36:34.481Z,6.07
2023-02-05T05:39:21.740Z,6.70
2023-02-05T05:42:07.995Z,6.13
2023-02-05T05:44:35.262Z,6.43
2023-02-05T05:47:02.598Z,6.50
2023-02-05T05:49:29.902Z,5.60
2023-02-05T05:51:57.266Z,6.13
2023-02-05T05:54:24.562Z,6.00
2023-02-05T05:56:51.916Z,6.57
2023-02-05T05:59:19.295Z,6.77
2023-02-05T06:01:46.630Z,6.90
2023-02-05T06:04:14.102Z,6.27
2023-02-05T06:06:42.493Z,6.77
2023-02-05T06:09:09.999Z,6.70
2023-02-05T06:11:37.425Z,6.03
2023-02-05T06:14:04.751Z,6.33
2023-02-05T06:16:32.163Z,6.87
2023-02-05T06:18:59.598Z,6.20
2023-02-05T06:21:26.959Z,7.10
2023-02-05T06:23:54.269Z,6.60
2023-02-05T06:26:21.614Z,6.70
2023-02-05T06:28:49.028Z,6.97
2023-02-05T06:31:17.478Z,6.73
2023-02-05T06:33:45.039Z,6.67
2023-02-05T06:36:12.364Z,6.40
2023-02-05T06:38:39.681Z,6.90
2023-02-05T06:41:07.047Z,6.30
2023-02-05T06:43:34.370Z,6.17
2023-02-05T06:46:01.781Z,5.87
2023-02-05T06:48:29.107Z,6.47
2023-02-05T06:50:56.459Z,5.87
2023-02-05T06:53:23.782Z,6.40
2023-02-05T06:55:51.098Z,6.93
2023-02-05T06:58:18.374Z,5.90
2023-02-05T07:00:45.749Z,6.10
2023-02-05T07:03:13.105Z,5.73
2023-02-05T07:05:40.545Z,6.23
2023-02-05T07:08:07.912Z,6.70
2023-02-05T07:10:35.230Z,6.23
2023-02-05T07:13:04.435Z,6.67
2023-02-05T07:15:33.260Z,7.57
2023-02-05T07:18:00.844Z,7.07
2023-02-05T07:20:28.210Z,6.67
2023-02-05T07:22:55.635Z,6.37
2023-02-05T07:25:23.064Z,6.50
2023-02-05T07:27:50.368Z,7.37
2023-02-05T07:30:17.798Z,7.10
2023-02-05T07:32:45.354Z,6.20
2023-02-05T07:35:12.747Z,7.13
2023-02-05T07:37:40.316Z,6.90
2023-02-05T07:40:07.998Z,6.87
2023-02-05T07:42:35.277Z,7.33
2023-02-05T07:45:03.617Z,7.20
2023-02-05T07:47:30.931Z,6.73
2023-02-05T07:49:58.226Z,7.17
2023-02-05T07:52:35.113Z,7.47
2023-02-05T07:55:02.424Z,6.70
2023-02-05T07:57:29.744Z,7.10
2023-02-05T07:59:57.036Z,6.97
2023-02-05T08:02:24.408Z,7.20
2023-02-05T08:04:51.719Z,7.20
2023-02-05T08:07:19.126Z,7.50
2023-02-05T08:09:46.425Z,7.20
2023-02-05T08:12:13.808Z,7.20
2023-02-05T08:14:41.158Z,7.07
2023-02-05T08:17:08.427Z,7.10
2023-02-05T08:19:35.710Z,6.93
2023-02-05T08:22:03.142Z,7.33
2023-02-05T08:24:31.814Z,7.60
2023-02-05T08:26:59.285Z,7.17
2023-02-05T08:29:26.653Z,7.57
2023-02-05T08:31:54.168Z,8.07
2023-02-05T08:34:21.487Z,8.17
2023-02-05T08:36:48.777Z,8.33
2023-02-05T08:39:16.136Z,8.90
2023-02-05T08:41:43.431Z,10.07
2023-02-05T08:44:10.743Z,7.90
2023-02-05T08:46:49.193Z,7.97
2023-02-05T08:49:18.096Z,8.23
2023-02-05T08:51:45.461Z,7.80
2023-02-05T08:54:15.208Z,8.33
2023-02-05T08:56:46.609Z,8.13
2023-02-05T08:59:14.144Z,7.93
2023-02-05T09:01:42.873Z,7.80
2023-02-05T09:04:14.560Z,7.90
2023-02-05T09:06:41.929Z,7.67
2023-02-05T09:09:09.437Z,7.93
2023-02-05T09:11:36.796Z,7.47
2023-02-05T09:14:04.287Z,7.57
2023-02-05T09:16:31.742Z,7.80
2023-02-05T09:18:59.409Z,7.60
2023-02-05T09:21:26.987Z,7.30
2023-02-05T09:23:54.716Z,8.17
2023-02-05T09:26:22.554Z,7.17
2023-02-05T09:28:49.904Z,7.53
2023-02-05T09:31:18.841Z,7.40
2023-02-05T09:33:46.608Z,7.60
2023-02-05T09:36:15.776Z,6.73
2023-02-05T09:38:43.157Z,7.10
2023-02-05T09:41:11.665Z,6.93
2023-02-05T09:43:58.986Z,7.33
2023-02-05T09:46:35.492Z,6.73
2023-02-05T09:49:11.767Z,6.57
2023-02-05T09:51:41.829Z,7.37
2023-02-05T09:54:15.838Z,7.40
2023-02-05T09:56:44.415Z,7.47
2023-02-05T09:59:15.292Z,7.07
2023-02-05T10:01:54.641Z,7.73
2023-02-05T10:04:22.236Z,7.37
2023-02-05T10:06:57.801Z,6.60
2023-02-05T10:09:25.096Z,5.00
2023-02-05T10:12:00.279Z,4.57
2023-02-05T10:14:27.637Z,3.77
2023-02-05T10:17:15.368Z,3.80
2023-02-05T10:19:48.638Z,3.50
2023-02-05T10:22:16.093Z,4.00
2023-02-05T10:24:46.340Z,3.80
2023-02-05T10:27:13.809Z,4.30
2023-02-05T10:29:50.217Z,4.60
2023-02-05T10:32:33.640Z,4.30
2023-02-05T10:35:05.720Z,4.43
2023-02-05T10:37:47.982Z,4.50
2023-02-05T10:40:17.141Z,4.73
2023-02-05T10:42:51.873Z,4.17
2023-02-05T10:45:21.010Z,4.47
2023-02-05T10:48:01.846Z,4.53
2023-02-05T10:50:50.318Z,4.70
2023-02-05T10:53:20.854Z,5.37
2023-02-05T10:55:48.270Z,4.57
2023-02-05T10:58:25.243Z,4.80
2023-02-05T11:00:53.307Z,4.90
2023-02-05T11:03:22.916Z,4.80
2023-02-05T11:05:51.181Z,5.10
2023-02-05T11:08:38.726Z,5.40
2023-02-05T11:11:06.735Z,5.30
2023-02-05T11:13:39.451Z,5.63
2023-02-05T11:16:08.796Z,5.70
2023-02-05T11:18:44.336Z,5.93
2023-02-05T11:21:12.138Z,5.47
2023-02-05T11:23:41.050Z,5.50
2023-02-05T11:26:18.142Z,6.13
2023-02-05T11:28:45.470Z,6.90
2023-02-05T11:31:20.672Z,7.17
2023-02-05T11:33:48.755Z,6.83
2023-02-05T11:36:18.119Z,8.03
2023-02-05T11:38:50.552Z,7.00
2023-02-05T11:41:55.154Z,6.80
2023-02-05T11:44:29.923Z,6.90
2023-02-05T11:46:58.763Z,6.00
2023-02-05T11:49:36.432Z,6.10
2023-02-05T11:52:09.450Z,5.50
2023-02-05T11:54:37.191Z,5.67
2023-02-05T11:57:19.839Z,5.80
2023-02-05T11:59:57.528Z,6.50
2023-02-05T12:02:29.773Z,7.37
2023-02-05T12:05:15.640Z,6.50
2023-02-05T12:07:48.926Z,6.33
2023-02-05T12:10:26.339Z,5.83
2023-02-05T12:13:01.207Z,5.93
2023-02-05T12:15:34.895Z,6.37
2023-02-05T12:18:17.427Z,6.20
2023-02-05T12:21:03.587Z,6.97
2023-02-05T12:23:46.224Z,7.10
2023-02-05T12:26:22.519Z,7.60
2023-02-05T12:28:58.836Z,7.20
2023-02-05T12:31:49.455Z,7.93
2023-02-05T12:34:27.837Z,5.57
2023-02-05T12:37:13.565Z,6.50
2023-02-05T12:39:46.437Z,5.93
2023-02-05T12:42:37.094Z,6.10
2023-02-05T12:45:08.878Z,5.53
2023-02-05T12:47:45.095Z,5.33
2023-02-05T12:50:24.995Z,5.57
2023-02-05T12:53:03.261Z,5.83
2023-02-05T12:55:49.152Z,6.00
2023-02-05T12:58:17.585Z,5.13
2023-02-05T13:00:59.924Z,4.90
2023-02-05T13:03:38.347Z,4.90
2023-02-05T13:06:24.366Z,4.40
2023-02-05T13:08:54.168Z,5.03
2023-02-05T13:11:23.059Z,4.97
2023-02-05T13:13:53.551Z,4.93
2023-02-05T13:16:22.539Z,5.03
2023-02-05T13:18:55.639Z,5.27
2023-02-05T13:21:42.085Z,5.30
2023-02-05T13:24:44.877Z,5.10
2023-02-05T13:27:46.048Z,5.07
2023-02-05T13:30:16.329Z,4.87
2023-02-05T13:32:45.130Z,4.97
2023-02-05T13:35:12.505Z,5.03
2023-02-05T13:37:42.750Z,5.27
2023-02-05T13:40:13.091Z,4.80
2023-02-05T13:42:50.912Z,4.90
2023-02-05T13:45:21.222Z,4.87
2023-02-05T13:47:57.474Z,4.47
2023-02-05T13:50:36.954Z,5.27
2023-02-05T13:53:06.152Z,4.37
2023-02-05T13:55:41.250Z,4.37
2023-02-05T13:58:26.904Z,4.73
2023-02-05T14:00:57.109Z,4.60
2023-02-05T14:03:35.297Z,4.37
2023-02-05T14:06:16.401Z,4.43
2023-02-05T14:08:43.882Z,4.50
2023-02-05T14:11:11.890Z,4.77
2023-02-05T14:13:39.246Z,5.10
2023-02-05T14:16:25.043Z,5.10
2023-02-05T14:18:52.327Z,5.17
2023-02-05T14:21:31.952Z,5.30
2023-02-05T14:24:00.621Z,5.07
2023-02-05T14:26:53.864Z,5.00
2023-02-05T14:29:51.507Z,4.97
2023-02-05T14:32:30.652Z,4.80
2023-02-05T14:35:26.634Z,4.83
2023-02-05T14:37:55.103Z,4.90
2023-02-05T14:40:38.767Z,5.13
2023-02-05T14:43:24.486Z,4.63
2023-02-05T14:45:52.915Z,5.07
2023-02-05T14:48:22.926Z,5.03
2023-02-05T14:51:01.345Z,4.63
2023-02-05T14:53:29.926Z,5.37
2023-02-05T14:56:31.844Z,5.30
2023-02-05T14:59:05.066Z,5.37
2023-02-05T15:01:42.679Z,5.40
2023-02-05T15:04:36.089Z,5.37
2023-02-05T15:07:08.874Z,5.20
2023-02-05T15:09:39.293Z,5.40
2023-02-05T15:12:25.886Z,5.30
2023-02-05T15:14:54.644Z,6.30
2023-02-05T15:17:32.488Z,6.03
2023-02-05T15:20:05.030Z,5.47
2023-02-05T15:22:32.382Z,5.90
2023-02-05T15:25:00.830Z,5.83
2023-02-05T15:27:39.368Z,5.83
2023-02-05T15:30:09.186Z,5.90
2023-02-05T15:32:45.378Z,5.90
2023-02-05T15:35:15.295Z,5.30
2023-02-05T15:37:44.660Z,6.00
2023-02-05T15:40:14.935Z,5.33
2023-02-05T15:42:45.947Z,5.60
2023-02-05T15:45:23.670Z,6.00
2023-02-05T15:48:03.236Z,5.60
2023-02-05T15:50:31.538Z,5.20
2023-02-05T15:52:59.554Z,5.10
2023-02-05T15:55:29.039Z,5.13
2023-02-05T15:58:00.225Z,5.10
2023-02-05T16:00:29.934Z,5.10
2023-02-05T16:02:58.879Z,5.37
2023-02-05T16:05:27.051Z,5.27
2023-02-05T16:07:58.977Z,5.30
2023-02-05T16:10:28.402Z,5.60
2023-02-05T16:12:58.809Z,6.00
2023-02-05T16:15:29.081Z,5.70
2023-02-05T16:17:59.954Z,5.97
2023-02-05T16:20:29.521Z,6.30
2023-02-05T16:23:02.720Z,5.90
2023-02-05T16:25:39.877Z,6.30
2023-02-05T16:28:13.177Z,6.23
2023-02-05T16:30:42.899Z,5.87
2023-02-05T16:33:36.630Z,6.07
2023-02-05T16:36:05.390Z,6.37
2023-02-05T16:38:32.879Z,5.97
2023-02-05T16:41:01.114Z,5.87
2023-02-05T16:43:31.381Z,5.67
2023-02-05T16:46:07.902Z,5.37
2023-02-05T16:48:38.108Z,6.20
2023-02-05T16:51:06.106Z,5.77
2023-02-05T16:53:35.396Z,5.77
2023-02-05T16:56:11.916Z,6.37
2023-02-05T16:58:47.756Z,5.90
2023-02-05T17:01:20.565Z,6.17
2023-02-05T17:03:49.842Z,5.87
2023-02-05T17:06:18.938Z,6.57
2023-02-05T17:08:56.066Z,4.77
2023-02-05T17:11:34.112Z,5.67
2023-02-05T17:14:12.566Z,5.50
2023-02-05T17:16:40.594Z,5.50
2023-02-05T17:19:25.891Z,5.50
2023-02-05T17:22:11.576Z,5.50
2023-02-05T17:24:39.051Z,5.47
2023-02-05T17:27:06.527Z,5.57
2023-02-05T17:29:36.530Z,6.80
2023-02-05T17:32:05.082Z,6.07
2023-02-05T17:34:32.462Z,5.90
2023-02-05T17:36:59.933Z,6.33
2023-02-05T17:39:27.376Z,6.23
2023-02-05T17:42:04.119Z,6.37
2023-02-05T17:44:34.101Z,6.37
2023-02-05T17:47:02.157Z,6.50
2023-02-05T17:49:29.530Z,7.27
2023-02-05T17:51:57.104Z,7.50
2023-02-05T17:54:25.591Z,8.60
2023-02-05T17:56:54.959Z,7.60
2023-02-05T17:59:23.195Z,10.03
2023-02-05T18:01:51.253Z,9.67
2023-02-05T18:04:18.756Z,10.70
2023-02-05T18:06:46.756Z,11.40
2023-02-05T18:09:14.174Z,11.53
2023-02-05T18:11:42.883Z,12.03
2023-02-05T18:14:10.393Z,9.93
2023-02-05T18:16:37.856Z,10.10
2023-02-05T18:19:05.574Z,9.57
2023-02-05T18:21:33.035Z,10.17
2023-02-05T18:24:00.421Z,9.30
2023-02-05T18:26:27.778Z,9.93
2023-02-05T18:28:56.162Z,11.00
2023-02-05T18:31:23.567Z,10.03
2023-02-05T18:33:52.715Z,10.00
2023-02-05T18:36:20.100Z,9.57
2023-02-05T18:38:47.457Z,10.67
2023-02-05T18:41:16.336Z,10.40
2023-02-05T18:43:44.237Z,10.53
2023-02-05T18:46:14.325Z,10.70
2023-02-05T18:48:41.817Z,10.93
2023-02-05T18:51:09.993Z,12.90
2023-02-05T18:53:43.029Z,11.57
2023-02-05T18:56:13.992Z,11.73
2023-02-05T18:58:41.908Z,11.27
2023-02-05T19:01:10.627Z,11.87
2023-02-05T19:03:38.913Z,11.40
2023-02-05T19:06:06.645Z,13.03
2023-02-05T19:08:33.988Z,12.93
2023-02-05T19:11:06.388Z,12.63
2023-02-05T19:13:34.089Z,13.20
2023-02-05T19:16:19.414Z,12.87
2023-02-05T19:18:47.222Z,12.80
2023-02-05T19:21:15.766Z,12.90
2023-02-05T19:23:44.366Z,12.67
2023-02-05T19:26:14.005Z,13.70
2023-02-05T19:28:41.793Z,13.57
2023-02-05T19:31:10.594Z,12.83
2023-02-05T19:33:38.893Z,12.60
2023-02-05T19:36:07.151Z,13.03
2023-02-05T19:38:38.267Z,13.10
2023-02-05T19:41:14.823Z,14.17
2023-02-05T19:43:49.820Z,17.83
2023-02-05T19:46:18.325Z,17.58
2023-02-05T19:48:45.806Z,15.87
2023-02-05T19:51:14.357Z,15.73
2023-02-05T19:53:43.471Z,15.07
2023-02-05T19:56:12.609Z,15.70
2023-02-05T19:58:41.383Z,15.97
2023-02-05T20:01:15.936Z,15.97
2023-02-05T20:03:44.811Z,15.77
2023-02-05T20:06:13.999Z,15.73
2023-02-05T20:08:41.398Z,17.27
2023-02-05T20:11:08.773Z,16.20
2023-02-05T20:13:36.915Z,16.43
2023-02-05T20:16:10.445Z,17.00
2023-02-05T20:18:38.319Z,16.47
2023-02-05T20:21:09.613Z,17.00
2023-02-05T20:23:37.463Z,17.27
2023-02-05T20:26:05.466Z,17.00
2023-02-05T20:28:33.649Z,19.98
2023-02-05T20:31:20.171Z,17.93
2023-02-05T20:33:50.078Z,17.83
2023-02-05T20:36:17.469Z,17.17
2023-02-05T20:38:44.773Z,17.13
2023-02-05T20:41:18.593Z,17.30
2023-02-05T20:43:46.157Z,18.20
2023-02-05T20:46:13.563Z,18.57
2023-02-05T20:48:40.957Z,18.23
2023-02-05T20:51:13.271Z,19.47
2023-02-05T20:53:41.044Z,19.03
2023-02-05T20:56:09.816Z,18.53
2023-02-05T20:58:37.504Z,20.10
2023-02-05T21:01:09.206Z,19.03
2023-02-05T21:03:37.244Z,20.30
2023-02-05T21:06:04.818Z,20.20
2023-02-05T21:08:32.563Z,19.67
2023-02-05T21:10:59.917Z,20.03
2023-02-05T21:13:27.379Z,21.13
2023-02-05T21:15:59.072Z,20.93
2023-02-05T21:18:27.339Z,21.10
2023-02-05T21:20:55.306Z,21.10
2023-02-05T21:23:22.654Z,22.23
2023-02-05T21:25:50.744Z,21.23
2023-02-05T21:28:19.062Z,21.37
2023-02-05T21:30:51.146Z,22.70
2023-02-05T21:33:19.402Z,22.73
2023-02-05T21:35:46.722Z,20.53
2023-02-05T21:38:14.046Z,21.90
2023-02-05T21:40:41.331Z,22.80
2023-02-05T21:43:08.628Z,21.33
2023-02-05T21:45:37.044Z,22.47
2023-02-05T21:48:04.637Z,22.50
2023-02-05T21:50:31.940Z,22.30
2023-02-05T21:52:59.880Z,22.33
2023-02-05T21:55:27.274Z,21.43
2023-02-05T21:57:54.638Z,23.33
2023-02-05T22:00:22.096Z,22.33
2023-02-05T22:02:49.382Z,21.17
2023-02-05T22:05:16.733Z,21.10
2023-02-05T22:07:44.104Z,21.50
2023-02-05T22:10:11.487Z,21.47
2023-02-05T22:12:38.872Z,22.03
2023-02-05T22:15:06.359Z,22.23
2023-02-05T22:17:33.641Z,21.27
2023-02-05T22:20:01.063Z,21.00
2023-02-05T22:22:28.365Z,22.57
2023-02-05T22:24:55.678Z,22.43
2023-02-05T22:27:23.347Z,22.37
2023-02-05T22:29:50.665Z,23.50
2023-02-05T22:32:20.383Z,24.20
2023-02-05T22:34:47.874Z,22.87
2023-02-05T22:37:15.308Z,24.60
2023-02-05T22:39:43.528Z,24.27
2023-02-05T22:42:10.822Z,26.20
2023-02-05T22:44:38.226Z,25.33
2023-02-05T22:47:05.577Z,27.33
2023-02-05T22:49:32.946Z,27.87
2023-02-05T22:52:00.394Z,28.20
2023-02-05T22:54:27.697Z,28.47
2023-02-05T22:56:55.065Z,28.90
2023-02-05T22:59:22.436Z,28.30
2023-02-05T23:01:49.761Z,28.20
2023-02-05T23:04:17.098Z,27.30
2023-02-05T23:06:45.276Z,28.83
2023-02-05T23:09:14.461Z,29.63
2023-02-05T23:11:42.105Z,27.97
2023-02-05T23:14:10.130Z,29.93
2023-02-05T23:16:38.777Z,30.17
2023-02-05T23:19:08.381Z,29.50
2023-02-05T23:21:36.406Z,30.57
2023-02-05T23:24:04.238Z,29.70
2023-02-05T23:26:32.997Z,30.03
2023-02-05T23:29:00.544Z,29.53
2023-02-05T23:31:28.607Z,31.33
2023-02-05T23:33:56.087Z,31.17
2023-02-05T23:36:23.514Z,30.23
2023-02-05T23:38:51.087Z,31.10
2023-02-05T23:41:37.432Z,29.90
2023-02-05T23:44:12.319Z,29.43
2023-02-05T23:46:40.047Z,30.17
2023-02-05T23:49:07.739Z,30.23
2023-02-05T23:51:35.217Z,32.07
2023-02-05T23:54:02.794Z,30.93
